createdAt,value
2023-08-17T00:03:19.672Z,22.05
2023-08-17T00:08:21.459Z,21.96
2023-08-17T00:13:23.332Z,21.89
2023-08-17T00:18:25.093Z,21.81
2023-08-17T00:23:26.299Z,21.83
2023-08-17T00:28:27.517Z,21.86
2023-08-17T00:33:28.771Z,21.75
2023-08-17T00:38:30.355Z,21.64
2023-08-17T00:43:31.875Z,21.56
2023-08-17T00:48:33.574Z,21.51
2023-08-17T00:53:35.653Z,21.44
2023-08-17T00:58:37.685Z,21.38
2023-08-17T01:03:39.169Z,21.34
2023-08-17T01:08:41.348Z,21.47
2023-08-17T01:13:42.666Z,21.48
2023-08-17T01:18:44.263Z,21.38
2023-08-17T01:23:46.176Z,21.32
2023-08-17T01:28:47.700Z,21.23
2023-08-17T01:33:49.699Z,21.18
2023-08-17T01:38:51.754Z,21.09
2023-08-17T01:43:53.831Z,21.01
2023-08-17T01:48:55.138Z,21.04
2023-08-17T01:53:56.984Z,21.23
2023-08-17T01:58:58.389Z,21.21
2023-08-17T02:03:59.592Z,21.1
2023-08-17T02:09:00.835Z,21.06
2023-08-17T02:14:02.569Z,21.01
2023-08-17T02:19:04.508Z,20.95
2023-08-17T02:24:05.757Z,20.88
2023-08-17T02:29:07.849Z,20.78
2023-08-17T02:34:09.358Z,20.74
2023-08-17T02:39:10.779Z,20.77
2023-08-17T02:44:12.060Z,20.64
2023-08-17T02:49:13.797Z,20.36
2023-08-17T02:54:15.239Z,20.33
2023-08-17T02:59:16.871Z,20.27
2023-08-17T03:04:18.089Z,20.18
2023-08-17T03:09:20.031Z,20.12
2023-08-17T03:14:22.100Z,20.07
2023-08-17T03:19:23.913Z,20.04
2023-08-17T03:24:25.733Z,20.1
2023-08-17T03:29:27.194Z,20.18
2023-08-17T03:34:29.089Z,20.15
2023-08-17T03:39:30.997Z,20.1
2023-08-17T03:44:33.040Z,20.07
2023-08-17T03:49:34.615Z,20.04
2023-08-17T03:54:35.867Z,20.04
2023-08-17T03:59:37.466Z,20.01
2023-08-17T04:04:39.542Z,19.96
2023-08-17T04:09:41.543Z,19.91
2023-08-17T04:14:43.074Z,20.07
2023-08-17T04:19:45.194Z,20.2
2023-08-17T04:24:47.240Z,20.17
2023-08-17T04:29:48.663Z,20.1
2023-08-17T04:34:51.443Z,20.04
2023-08-17T04:39:52.456Z,19.99
2023-08-17T04:44:53.737Z,19.98
2023-08-17T04:49:55.449Z,19.95
2023-08-17T04:54:57.164Z,19.95
2023-08-17T04:59:58.964Z,19.96
2023-08-17T05:05:00.845Z,20.11
2023-08-17T05:10:02.310Z,20.27
2023-08-17T05:15:03.692Z,20.26
2023-08-17T05:20:05.595Z,20.25
2023-08-17T05:25:07.477Z,20.23
2023-08-17T05:30:09.288Z,20.26
2023-08-17T05:35:11.065Z,20.37
2023-08-17T05:40:12.653Z,20.48
2023-08-17T05:45:14.022Z,20.68
2023-08-17T05:50:15.248Z,20.95
2023-08-17T05:55:16.506Z,21.66
2023-08-17T06:00:18.539Z,22.19
2023-08-17T06:05:19.818Z,22.57
2023-08-17T06:25:27.126Z,24.79
2023-08-17T06:50:35.429Z,27.23
2023-08-17T07:00:38.218Z,27.7
2023-08-17T07:40:51.918Z,29.59
2023-08-17T07:55:56.264Z,30.44
2023-08-17T08:05:59.388Z,30.65
2023-08-17T08:16:02.495Z,30.88
2023-08-17T08:31:07.935Z,30.96
2023-08-17T09:11:21.071Z,31.97
2023-08-17T09:16:25.284Z,32.55
2023-08-17T09:21:24.315Z,33.13
2023-08-17T09:26:26.207Z,33.59
2023-08-17T09:31:28.285Z,34
2023-08-17T09:36:29.558Z,34.25
2023-08-17T09:41:31.276Z,34.08
2023-08-17T09:46:32.789Z,33.91
2023-08-17T09:51:34.090Z,34
2023-08-17T09:56:35.388Z,33.89
2023-08-17T10:01:37.607Z,33.97
2023-08-17T10:06:39.424Z,34.18
2023-08-17T10:11:40.812Z,34.53
2023-08-17T10:16:42.082Z,34.46
2023-08-17T10:21:43.438Z,34.04
2023-08-17T10:26:44.737Z,34.06
2023-08-17T10:31:46.770Z,34.23
2023-08-17T10:36:48.671Z,34.09
2023-08-17T10:41:50.343Z,33.89
2023-08-17T10:46:51.850Z,33.79
2023-08-17T10:51:53.982Z,33.77
2023-08-17T10:56:55.995Z,33.64
2023-08-17T11:01:57.455Z,33.46
2023-08-17T11:06:59.265Z,33.43
2023-08-17T11:12:00.618Z,33.18
2023-08-17T11:17:06.210Z,33.08
2023-08-17T11:22:03.728Z,32.96
2023-08-17T11:27:05.301Z,32.97
2023-08-17T11:32:06.741Z,32.91
2023-08-17T11:37:08.074Z,32.81
2023-08-17T11:42:09.342Z,32.91
2023-08-17T11:47:10.585Z,32.81
2023-08-17T11:52:12.527Z,32.68
2023-08-17T11:57:13.780Z,32.43
2023-08-17T12:02:15.724Z,32.33
2023-08-17T12:07:17.185Z,32.43
2023-08-17T12:12:18.969Z,32.43
2023-08-17T12:17:20.302Z,32.28
2023-08-17T12:22:22.392Z,32.25
2023-08-17T12:27:24.251Z,32.09
2023-08-17T12:32:26.294Z,32.06
2023-08-17T12:37:27.748Z,31.97
2023-08-17T12:42:29.487Z,31.96
2023-08-17T12:47:34.451Z,31.79
2023-08-17T12:52:33.094Z,31.46
2023-08-17T12:57:35.223Z,31.67
2023-08-17T13:02:37.261Z,31.77
2023-08-17T13:07:38.385Z,31.8
2023-08-17T13:12:40.533Z,31.77
2023-08-17T13:17:42.544Z,31.88
2023-08-17T13:22:44.006Z,31.71
2023-08-17T13:27:46.143Z,31.39
2023-08-17T13:32:47.582Z,31.31
2023-08-17T13:37:49.112Z,31.29
2023-08-17T13:42:50.334Z,31.47
2023-08-17T13:47:52.412Z,31.71
2023-08-17T13:52:54.007Z,31.69
2023-08-17T13:57:58.399Z,31.6
2023-08-17T14:02:57.562Z,31.63
2023-08-17T14:07:58.888Z,31.72
2023-08-17T14:13:00.143Z,31.6
2023-08-17T14:18:02.274Z,31.37
2023-08-17T14:23:04.099Z,31.09
2023-08-17T14:28:05.567Z,31.16
2023-08-17T14:33:07.019Z,31.43
2023-08-17T14:38:08.480Z,31.35
2023-08-17T14:43:10.351Z,31.26
2023-08-17T14:48:12.215Z,31.17
2023-08-17T14:53:14.041Z,31.11
2023-08-17T14:58:16.144Z,31.23
2023-08-17T15:03:24.308Z,31.31
2023-08-17T15:08:19.222Z,31.28
2023-08-17T15:13:21.034Z,31.06
2023-08-17T15:18:24.617Z,30.96
2023-08-17T15:23:24.984Z,30.88
2023-08-17T15:23:31.295Z,30.88
2023-08-17T15:28:32.574Z,30.96
2023-08-17T15:33:34.476Z,31.16
2023-08-17T15:38:35.709Z,31.03
2023-08-17T15:43:36.885Z,30.85
2023-08-17T15:48:38.968Z,30.67
2023-08-17T15:53:40.291Z,30.52
2023-08-17T15:58:42.365Z,30.38
2023-08-17T16:03:44.485Z,30.54
2023-08-17T16:08:49.509Z,30.63
2023-08-17T16:13:48.505Z,30.57
2023-08-17T16:18:50.647Z,30.38
2023-08-17T16:23:52.789Z,30.22
2023-08-17T16:28:54.491Z,30.08
2023-08-17T16:33:55.936Z,30.02
2023-08-17T16:38:57.840Z,29.78
2023-08-17T16:44:05.425Z,29.39
2023-08-17T16:49:01.823Z,28.95
2023-08-17T16:54:02.988Z,28.44
2023-08-17T16:59:05.101Z,28.03
2023-08-17T17:04:06.516Z,27.62
2023-08-17T17:09:08.278Z,27.35
2023-08-17T17:14:10.278Z,27.34
2023-08-17T17:19:12.380Z,27.14
2023-08-17T17:24:14.342Z,26.76
2023-08-17T17:29:16.022Z,25.63
2023-08-17T17:34:18.095Z,25.09
2023-08-17T17:39:19.997Z,24.71
2023-08-17T17:44:21.373Z,24.3
2023-08-17T17:49:22.866Z,23.91
2023-08-17T17:54:24.474Z,23.81
2023-08-17T17:59:26.447Z,23.76
2023-08-17T18:04:28.391Z,23.76
2023-08-17T18:09:30.390Z,23.79
2023-08-17T18:14:32.310Z,23.85
2023-08-17T18:19:34.034Z,23.83
2023-08-17T18:24:35.792Z,23.94
2023-08-17T18:29:37.706Z,24.19
2023-08-17T18:34:39.415Z,24.29
2023-08-17T18:39:41.416Z,24.22
2023-08-17T18:44:42.996Z,24.2
2023-08-17T18:49:44.511Z,24.08
2023-08-17T18:54:46.460Z,23.84
2023-08-17T18:59:48.236Z,23.73
2023-08-17T19:04:49.667Z,23.66
2023-08-17T19:09:51.012Z,23.76
2023-08-17T19:14:52.572Z,23.73
2023-08-17T19:19:54.021Z,23.62
2023-08-17T19:24:56.107Z,23.53
2023-08-17T19:29:58.073Z,23.44
2023-08-17T19:34:59.539Z,23.29
2023-08-17T19:40:01.518Z,23.19
2023-08-17T19:45:03.301Z,23.13
2023-08-17T19:50:05.435Z,23.18
2023-08-17T19:55:06.764Z,23.16
2023-08-17T20:00:08.483Z,23.01
2023-08-17T20:05:10.643Z,22.95
2023-08-17T20:10:12.660Z,22.91
2023-08-17T20:15:14.061Z,22.85
2023-08-17T20:20:15.979Z,22.75
2023-08-17T20:25:17.709Z,22.69
2023-08-17T20:30:19.110Z,22.81
2023-08-17T20:40:22.510Z,22.81
2023-08-17T21:15:33.398Z,22.65
2023-08-17T21:20:35.196Z,22.55
2023-08-17T21:25:37.422Z,22.51
2023-08-17T21:30:39.403Z,22.46
2023-08-17T21:45:43.897Z,22.41
2023-08-17T21:50:45.979Z,22.57
2023-08-17T21:55:48.148Z,22.5
2023-08-17T22:15:55.074Z,22.18
2023-08-17T23:26:19.639Z,21.78
2023-08-17T23:31:21.177Z,21.72
2023-08-17T23:36:23.169Z,21.66
2023-08-17T23:41:24.613Z,21.63
2023-08-17T23:46:25.809Z,21.75
2023-08-17T23:51:27.492Z,21.67
2023-08-17T23:56:28.772Z,21.53
